West Tisbury, MA (02575)

6:40 AM EDT on July 06, 2015 (GMT -0400)
Hay Path Hill | | Change Station
CLOSE
Current Station
Personal Weather Station
Location: Oak Bluffs, MA
Elevation: 95 ft
Nearby Weather Stations

Elev 95 ft 41.43 °N, 70.62 °W | Updated 7 seconds ago

Clear
Clear
63.4 °F
Feels Like 63.4 °F
N
0.0
Wind Variable Wind from NW
Gusts 2.0 mph

Today
High -- | Low -- °F
--% Chance of Precip.
Yesterday
High -- | Low -- °F
Precip. -- in
5:15 AM 8:18 PM
Waning Gibbous, 76% visible
Pressure 30.16 in
Visibility 3.0 miles
Clouds Clear
Dew Point 63 °F
Humidity 99%
Rainfall 0.00 in
Snow Depth Not available.
UV 0 out of 12
Pollen 4.40 out of 12
Air Quality Not available.
Flu Activity Not available.
METAR KMVY 060953Z 24003KT 3SM BR CLR 16/14 A3016 RMK AO2 SLP211 T01560144

More Conditions Fewer Conditions

Pressure 30.16 in
Visibility 3.0 miles
Clouds Clear
Dew Point 63 °F
Humidity 99%
Rainfall 0.00 in
Snow Depth Not available.
UV 0 out of 12
Pollen 4.40 out of 12
Air Quality Not available.
Flu Activity Not available.
METAR KMVY 060953Z 24003KT 3SM BR CLR 16/14 A3016 RMK AO2 SLP211 T01560144

More Conditions Fewer Conditions

10-Day Weather Forecast

×

Almanac

Astronomy

Jul. 06, 2015 Rise Set
Actual Time
Civil Twilight
Nautical Twilight
Astronomical Twilight
Moon
Length of Visible Light
Length of Day
Tomorrow will be .
, % of the Moon is Illuminated

Today's Extremes

State Highs State Lows

Community

WunderPhotos

Upload Photos

1,835,531 photos uploaded!

WunderBlogs® & News

Nearby

Air Quality

  Air Quality AQ Index Pollutant
Not available.

Snow Depth

Station Depth Elevation

Earthquake Activity

City Distance Mag. Time & Date
Minimum magnitude displayed is 2.5.

Coastal Water Temperatures

Place Temperature

Stations

Nearby Weather Stations

Station Location Temp. Windchill Dew Point Humidity Wind Precip. Elev Updated Type